createdAt,value
2022-11-28T00:01:19.821Z,55.18
2022-11-28T00:03:46.398Z,54.96
2022-11-28T00:06:13.055Z,55.07
2022-11-28T00:08:40.405Z,55.04
2022-11-28T00:11:09.264Z,55.02
2022-11-28T00:13:36.716Z,55.02
2022-11-28T00:16:06.793Z,55.20
2022-11-28T00:18:33.584Z,54.96
2022-11-28T00:21:08.845Z,55.38
2022-11-28T00:23:35.827Z,55.30
2022-11-28T00:26:11.677Z,55.24
2022-11-28T00:28:39.756Z,55.24
2022-11-28T00:31:07.107Z,55.03
2022-11-28T00:33:33.934Z,55.23
2022-11-28T00:36:04.995Z,55.16
2022-11-28T00:38:31.765Z,55.23
2022-11-28T00:41:06.621Z,55.39
2022-11-28T00:43:33.660Z,55.20
2022-11-28T00:46:00.350Z,55.03
2022-11-28T00:48:27.237Z,54.99
2022-11-28T00:50:55.083Z,55.16
2022-11-28T00:53:21.957Z,55.10
2022-11-28T00:55:48.524Z,55.20
2022-11-28T00:58:15.064Z,55.12
2022-11-28T01:00:41.788Z,55.06
2022-11-28T01:03:08.402Z,55.09
2022-11-28T01:05:40.616Z,55.07
2022-11-28T01:08:08.037Z,54.95
2022-11-28T01:10:34.587Z,54.94
2022-11-28T01:13:01.160Z,55.12
2022-11-28T01:15:28.365Z,55.07
2022-11-28T01:17:55.368Z,54.94
2022-11-28T01:20:22.357Z,55.24
2022-11-28T01:22:48.951Z,55.01
2022-11-28T01:25:16.478Z,55.05
2022-11-28T01:27:43.026Z,54.92
2022-11-28T01:30:10.199Z,55.13
2022-11-28T01:32:36.733Z,55.21
2022-11-28T01:35:03.758Z,54.97
2022-11-28T01:37:30.904Z,55.14
2022-11-28T01:39:57.974Z,54.98
2022-11-28T01:42:25.050Z,55.10
2022-11-28T01:44:54.220Z,55.04
2022-11-28T01:47:29.823Z,55.21
2022-11-28T01:49:56.937Z,54.97
2022-11-28T01:52:24.397Z,55.12
2022-11-28T01:54:56.042Z,55.16
2022-11-28T01:57:25.502Z,54.95
2022-11-28T02:00:11.718Z,55.10
2022-11-28T02:02:55.081Z,55.16
2022-11-28T02:05:22.800Z,54.88
2022-11-28T02:07:51.418Z,55.09
2022-11-28T02:10:28.723Z,55.13
2022-11-28T02:13:21.287Z,55.00
2022-11-28T02:16:03.596Z,54.98
2022-11-28T02:18:50.541Z,55.19
2022-11-28T02:21:29.441Z,55.24
2022-11-28T02:23:59.033Z,55.26
2022-11-28T02:26:31.299Z,55.13
2022-11-28T02:29:23.515Z,55.26
2022-11-28T02:32:14.449Z,55.07
2022-11-28T02:35:03.446Z,55.32
2022-11-28T02:38:02.234Z,55.16
2022-11-28T02:40:41.022Z,54.99
2022-11-28T02:43:20.600Z,55.13
2022-11-28T02:46:02.777Z,55.26
2022-11-28T02:48:42.058Z,55.34
2022-11-28T02:51:21.146Z,55.25
2022-11-28T02:53:49.669Z,55.13
2022-11-28T02:56:16.442Z,55.28
2022-11-28T02:58:42.985Z,55.15
2022-11-28T03:01:19.715Z,55.41
2022-11-28T03:04:05.123Z,55.24
2022-11-28T03:06:41.796Z,55.34
2022-11-28T03:09:33.275Z,55.57
2022-11-28T03:12:08.605Z,55.49
2022-11-28T03:14:47.603Z,55.48
2022-11-28T03:17:25.873Z,55.43
2022-11-28T03:20:14.080Z,55.60
2022-11-28T03:23:08.512Z,55.58
2022-11-28T03:26:19.103Z,55.75
2022-11-28T03:29:11.933Z,55.24
2022-11-28T03:31:48.347Z,55.27
2022-11-28T03:34:19.841Z,55.16
2022-11-28T03:37:00.152Z,55.19
2022-11-28T03:39:31.979Z,55.43
2022-11-28T03:42:07.839Z,55.81
2022-11-28T03:44:44.911Z,55.41
2022-11-28T03:47:12.281Z,55.27
2022-11-28T03:49:42.844Z,55.06
2022-11-28T03:52:16.901Z,55.57
2022-11-28T03:54:52.711Z,55.71
2022-11-28T03:57:31.288Z,55.71
2022-11-28T04:00:00.349Z,55.50
2022-11-28T04:02:34.238Z,55.43
2022-11-28T04:05:18.137Z,55.58
2022-11-28T04:07:51.964Z,55.36
2022-11-28T04:10:30.066Z,55.86
2022-11-28T04:13:07.112Z,55.85
2022-11-28T04:15:38.749Z,55.69
2022-11-28T04:18:30.098Z,55.49
2022-11-28T04:21:44.470Z,55.97
2022-11-28T04:24:18.253Z,55.85
2022-11-28T04:27:17.414Z,55.44
2022-11-28T04:29:54.055Z,55.77
2022-11-28T04:32:22.504Z,55.61
2022-11-28T04:34:54.890Z,55.50
2022-11-28T04:37:23.166Z,55.63
2022-11-28T04:39:50.734Z,55.50
2022-11-28T04:42:31.028Z,55.51
2022-11-28T04:45:03.623Z,55.66
2022-11-28T04:47:30.408Z,55.64
2022-11-28T04:49:57.056Z,55.64
2022-11-28T04:52:35.412Z,55.80
2022-11-28T04:55:10.825Z,55.74
2022-11-28T04:57:44.922Z,55.41
2022-11-28T05:00:15.545Z,55.81
2022-11-28T05:02:44.077Z,55.48
2022-11-28T05:05:15.479Z,55.74
2022-11-28T05:07:42.664Z,55.67
2022-11-28T05:10:12.048Z,55.49
2022-11-28T05:12:38.617Z,55.62
2022-11-28T05:15:06.243Z,55.44
2022-11-28T05:17:33.622Z,55.55
2022-11-28T05:20:02.554Z,55.57
2022-11-28T05:22:29.193Z,55.79
2022-11-28T05:24:55.769Z,55.83
2022-11-28T05:27:22.241Z,55.58
2022-11-28T05:29:52.211Z,55.72
2022-11-28T05:32:19.045Z,55.60
2022-11-28T05:34:45.605Z,55.98
2022-11-28T05:37:12.686Z,55.65
2022-11-28T05:39:39.514Z,55.67
2022-11-28T05:42:06.327Z,55.74
2022-11-28T05:44:32.848Z,55.40
2022-11-28T05:46:59.861Z,55.62
2022-11-28T05:49:27.169Z,55.59
2022-11-28T05:51:53.750Z,55.54
2022-11-28T05:54:20.267Z,55.54
2022-11-28T05:56:46.850Z,55.86
2022-11-28T05:59:13.980Z,55.48
2022-11-28T06:01:40.566Z,55.64
2022-11-28T06:04:07.226Z,55.90
2022-11-28T06:06:37.736Z,55.70
2022-11-28T06:09:06.183Z,55.74
2022-11-28T06:11:34.055Z,55.63
2022-11-28T06:14:01.121Z,55.54
2022-11-28T06:16:29.746Z,55.61
2022-11-28T06:18:59.070Z,55.73
2022-11-28T06:21:26.737Z,55.62
2022-11-28T06:23:54.430Z,55.60
2022-11-28T06:26:22.867Z,55.41
2022-11-28T06:28:50.133Z,55.54
2022-11-28T06:31:23.554Z,55.55
2022-11-28T06:33:50.763Z,55.54
2022-11-28T06:36:18.797Z,55.35
2022-11-28T06:38:46.224Z,55.39
2022-11-28T06:41:16.256Z,55.69
2022-11-28T06:43:43.054Z,55.82
2022-11-28T06:46:17.998Z,55.83
2022-11-28T06:48:46.206Z,55.92
2022-11-28T06:51:13.446Z,55.71
2022-11-28T06:53:40.766Z,55.76
2022-11-28T06:56:09.602Z,56.06
2022-11-28T06:58:36.683Z,56.02
2022-11-28T07:01:15.855Z,56.19
2022-11-28T07:03:43.812Z,55.70
2022-11-28T07:06:11.922Z,55.95
2022-11-28T07:08:38.611Z,55.95
2022-11-28T07:11:12.718Z,55.98
2022-11-28T07:13:40.478Z,56.06
2022-11-28T07:16:13.557Z,55.97
2022-11-28T07:18:40.151Z,55.89
2022-11-28T07:21:06.636Z,55.84
2022-11-28T07:23:33.228Z,56.06
2022-11-28T07:26:01.313Z,55.94
2022-11-28T07:28:29.625Z,55.94
2022-11-28T07:31:05.801Z,55.93
2022-11-28T07:33:33.856Z,55.91
2022-11-28T07:36:11.387Z,56.13
2022-11-28T07:38:38.106Z,56.01
2022-11-28T07:41:13.005Z,56.07
2022-11-28T07:43:44.507Z,56.07
2022-11-28T07:46:16.393Z,56.04
2022-11-28T07:48:43.784Z,55.78
2022-11-28T07:51:19.186Z,55.94
2022-11-28T07:53:46.582Z,55.90
2022-11-28T07:56:19.197Z,56.09
2022-11-28T07:58:47.682Z,55.69
2022-11-28T08:01:21.059Z,56.06
2022-11-28T08:03:49.176Z,56.02
2022-11-28T08:06:16.982Z,56.00
2022-11-28T08:08:45.505Z,56.07
2022-11-28T08:11:12.620Z,55.85
2022-11-28T08:13:40.441Z,55.76
2022-11-28T08:16:16.950Z,55.85
2022-11-28T08:18:44.090Z,55.69
2022-11-28T08:21:20.009Z,56.00
2022-11-28T08:23:46.901Z,55.62
2022-11-28T08:26:15.897Z,56.02
2022-11-28T08:28:43.746Z,56.19
2022-11-28T08:31:15.457Z,55.91
2022-11-28T08:33:42.523Z,56.00
2022-11-28T08:36:11.858Z,56.16
2022-11-28T08:38:38.695Z,56.18
2022-11-28T08:41:07.419Z,56.15
2022-11-28T08:43:36.750Z,56.15
2022-11-28T08:46:04.965Z,56.25
2022-11-28T08:48:31.678Z,56.23
2022-11-28T08:50:58.215Z,56.07
2022-11-28T08:53:24.764Z,56.23
2022-11-28T08:55:51.371Z,56.23
2022-11-28T08:58:18.315Z,56.29
2022-11-28T09:00:45.280Z,56.28
2022-11-28T09:03:15.291Z,56.39
2022-11-28T09:05:45.427Z,56.14
2022-11-28T09:08:18.052Z,56.34
2022-11-28T09:10:45.838Z,56.44
2022-11-28T09:13:14.371Z,56.64
2022-11-28T09:15:42.829Z,56.62
2022-11-28T09:18:11.369Z,56.43
2022-11-28T09:20:37.889Z,56.50
2022-11-28T09:23:04.909Z,56.61
2022-11-28T09:25:31.553Z,56.56
2022-11-28T09:28:01.260Z,56.63
2022-11-28T09:30:28.202Z,56.76
2022-11-28T09:32:54.776Z,56.60
2022-11-28T09:35:21.388Z,56.65
2022-11-28T09:37:47.910Z,56.45
2022-11-28T09:40:22.588Z,56.66
2022-11-28T09:42:49.863Z,56.59
2022-11-28T09:45:22.531Z,56.46
2022-11-28T09:47:56.731Z,56.94
2022-11-28T09:50:30.555Z,56.73
2022-11-28T09:53:29.920Z,56.78
2022-11-28T09:56:00.762Z,56.67
2022-11-28T09:58:55.403Z,57.08
2022-11-28T10:01:24.933Z,56.41
2022-11-28T10:04:09.739Z,56.97
2022-11-28T10:06:53.027Z,56.81
2022-11-28T10:09:38.230Z,56.62
2022-11-28T10:12:42.102Z,56.89
2022-11-28T10:15:23.930Z,56.87
2022-11-28T10:18:14.811Z,56.76
2022-11-28T10:20:47.856Z,56.78
2022-11-28T10:23:54.447Z,56.71
2022-11-28T10:26:31.396Z,56.59
2022-11-28T10:29:02.808Z,56.56
2022-11-28T10:31:38.539Z,56.75
2022-11-28T10:34:37.161Z,56.96
2022-11-28T10:37:11.274Z,56.55
2022-11-28T10:39:42.290Z,56.41
2022-11-28T10:42:28.822Z,56.67
2022-11-28T10:45:19.264Z,56.82
2022-11-28T10:47:55.065Z,56.77
2022-11-28T10:50:29.301Z,56.91
2022-11-28T10:53:14.348Z,56.88
2022-11-28T10:55:59.195Z,56.69
2022-11-28T10:58:55.881Z,56.93
2022-11-28T11:01:23.033Z,56.74
2022-11-28T11:03:50.118Z,56.69
2022-11-28T11:06:17.124Z,56.67
2022-11-28T11:08:46.054Z,56.91
2022-11-28T11:11:52.390Z,56.99
2022-11-28T11:14:37.272Z,57.06
2022-11-28T11:17:04.026Z,56.72
2022-11-28T11:19:36.780Z,56.86
2022-11-28T11:22:05.208Z,56.91
2022-11-28T11:24:32.282Z,56.84
2022-11-28T11:27:15.219Z,57.02
2022-11-28T11:29:44.040Z,56.71
2022-11-28T11:32:29.824Z,56.94
2022-11-28T11:34:58.562Z,56.91
2022-11-28T11:37:31.678Z,56.89
2022-11-28T11:39:59.719Z,56.75
2022-11-28T11:42:31.464Z,56.77
2022-11-28T11:45:24.200Z,56.92
2022-11-28T11:47:50.759Z,56.63
2022-11-28T11:50:21.364Z,56.73
2022-11-28T11:53:11.735Z,56.90
2022-11-28T11:55:48.847Z,56.83
2022-11-28T11:58:21.996Z,56.66
2022-11-28T12:00:49.067Z,56.61
2022-11-28T12:03:27.411Z,56.72
2022-11-28T12:06:16.625Z,56.68
2022-11-28T12:09:12.310Z,56.70
2022-11-28T12:11:50.804Z,56.61
2022-11-28T12:14:28.904Z,56.64
2022-11-28T12:17:25.625Z,56.65
2022-11-28T12:19:53.174Z,56.66
2022-11-28T12:22:31.909Z,56.62
2022-11-28T12:25:23.073Z,56.79
2022-11-28T12:28:15.429Z,56.70
2022-11-28T12:31:00.348Z,56.66
2022-11-28T12:33:43.494Z,56.67
2022-11-28T12:36:37.006Z,56.86
2022-11-28T12:39:24.307Z,56.81
2022-11-28T12:42:18.471Z,56.87
2022-11-28T12:45:15.924Z,57.01
2022-11-28T12:48:01.715Z,56.55
2022-11-28T12:50:39.668Z,56.80
2022-11-28T12:53:24.537Z,57.00
2022-11-28T12:56:25.853Z,56.93
2022-11-28T12:59:25.845Z,57.06
2022-11-28T13:02:22.440Z,56.87
2022-11-28T13:05:05.075Z,57.24
2022-11-28T13:08:13.592Z,56.83
2022-11-28T13:10:50.392Z,57.15
2022-11-28T13:13:44.979Z,56.93
2022-11-28T13:17:05.698Z,56.85
2022-11-28T13:19:55.061Z,57.00
2022-11-28T13:22:25.137Z,56.76
2022-11-28T13:25:40.306Z,56.79
2022-11-28T13:28:30.953Z,56.91
2022-11-28T13:31:07.628Z,56.78
2022-11-28T13:33:49.852Z,56.80
2022-11-28T13:39:41.006Z,57.25
2022-11-28T13:42:36.535Z,56.67
2022-11-28T13:45:07.236Z,56.91
2022-11-28T13:47:36.908Z,56.87
2022-11-28T13:50:24.976Z,57.04
2022-11-28T13:53:21.853Z,57.11
2022-11-28T13:56:15.885Z,56.93
2022-11-28T13:58:56.974Z,56.94
2022-11-28T14:01:26.917Z,56.62
2022-11-28T14:04:13.719Z,56.87
2022-11-28T14:06:59.185Z,56.58
2022-11-28T14:09:44.810Z,56.74
2022-11-28T14:12:28.854Z,56.80
2022-11-28T14:15:06.456Z,56.66
2022-11-28T14:18:19.155Z,56.67
2022-11-28T14:21:07.428Z,56.78
2022-11-28T14:23:40.385Z,56.75
2022-11-28T14:26:45.425Z,57.05
2022-11-28T14:29:22.911Z,56.81
2022-11-28T14:32:07.009Z,56.66
2022-11-28T14:34:44.822Z,56.52
2022-11-28T14:37:47.650Z,57.15
2022-11-28T14:41:03.066Z,56.97
2022-11-28T14:43:35.660Z,56.62
2022-11-28T14:46:21.538Z,57.05
2022-11-28T14:49:00.572Z,56.81
2022-11-28T14:51:45.631Z,57.16
2022-11-28T14:54:25.164Z,56.95
2022-11-28T14:56:58.228Z,56.79
2022-11-28T14:59:36.965Z,57.09
2022-11-28T15:02:12.696Z,56.92
2022-11-28T15:05:05.532Z,57.20
2022-11-28T15:08:10.139Z,57.08
2022-11-28T15:10:54.800Z,57.03
2022-11-28T15:13:42.957Z,57.07
2022-11-28T15:16:15.186Z,56.91
2022-11-28T15:18:49.070Z,56.82
2022-11-28T15:21:18.081Z,56.91
2022-11-28T15:23:46.629Z,56.77
2022-11-28T15:26:20.322Z,57.10
2022-11-28T15:28:46.928Z,56.63
2022-11-28T15:31:22.669Z,56.86
2022-11-28T15:33:49.869Z,57.25
2022-11-28T15:36:37.337Z,57.14
2022-11-28T15:39:04.060Z,56.99
2022-11-28T15:41:30.665Z,56.68
2022-11-28T15:43:57.594Z,56.86
2022-11-28T15:46:32.837Z,56.87
2022-11-28T15:49:01.475Z,57.08
2022-11-28T15:51:33.776Z,57.09
2022-11-28T15:54:31.484Z,56.94
2022-11-28T15:56:59.121Z,56.73
2022-11-28T15:59:26.218Z,56.90
2022-11-28T16:02:00.088Z,56.86
2022-11-28T16:04:29.642Z,56.66
2022-11-28T16:06:59.554Z,56.64
2022-11-28T16:09:31.031Z,57.15
2022-11-28T16:11:58.053Z,56.59
2022-11-28T16:14:29.294Z,57.03
2022-11-28T16:17:00.784Z,56.81
2022-11-28T16:19:36.619Z,56.67
2022-11-28T16:22:06.097Z,57.33
2022-11-28T16:24:43.235Z,56.97
2022-11-28T16:27:25.118Z,57.07
2022-11-28T16:29:51.800Z,56.84
2022-11-28T16:32:36.807Z,57.15
2022-11-28T16:35:04.945Z,56.71
2022-11-28T16:37:32.993Z,56.76
2022-11-28T16:40:14.978Z,56.87
2022-11-28T16:42:41.736Z,56.77
2022-11-28T16:45:17.949Z,56.99
2022-11-28T16:47:45.721Z,56.78
2022-11-28T16:50:22.079Z,56.92
2022-11-28T16:53:00.969Z,56.84
2022-11-28T16:55:27.483Z,56.77
2022-11-28T16:58:03.768Z,56.79
2022-11-28T17:00:30.296Z,56.84
2022-11-28T17:02:56.813Z,56.74
2022-11-28T17:05:23.387Z,56.71
2022-11-28T17:07:49.953Z,56.70
2022-11-28T17:10:16.826Z,57.06
2022-11-28T17:12:43.389Z,56.80
2022-11-28T17:15:22.784Z,57.04
2022-11-28T17:17:49.920Z,56.79
2022-11-28T17:20:17.781Z,56.63
2022-11-28T17:22:48.214Z,56.50
2022-11-28T17:25:17.798Z,56.70
2022-11-28T17:27:45.282Z,56.70
2022-11-28T17:30:18.104Z,56.81
2022-11-28T17:32:47.128Z,56.86
2022-11-28T17:35:20.118Z,56.73
2022-11-28T17:37:46.668Z,56.65
2022-11-28T17:40:32.011Z,56.70
2022-11-28T17:42:59.904Z,56.91
2022-11-28T17:45:27.121Z,56.85
2022-11-28T17:47:54.646Z,56.74
2022-11-28T17:50:21.728Z,56.80
2022-11-28T17:52:48.777Z,56.69
2022-11-28T17:55:18.235Z,56.71
2022-11-28T17:57:44.788Z,56.53
2022-11-28T18:00:13.088Z,56.66
2022-11-28T18:02:39.742Z,56.59
2022-11-28T18:05:06.502Z,56.75
2022-11-28T18:07:33.177Z,56.67
2022-11-28T18:09:59.732Z,56.55
2022-11-28T18:12:26.396Z,56.87
2022-11-28T18:14:53.131Z,57.12
2022-11-28T18:17:20.168Z,56.78
2022-11-28T18:19:46.872Z,56.78
2022-11-28T18:22:13.552Z,57.04
2022-11-28T18:24:40.090Z,56.83
2022-11-28T18:27:06.656Z,57.03
2022-11-28T18:29:34.313Z,57.03
2022-11-28T18:32:01.505Z,57.06
2022-11-28T18:34:28.689Z,56.92
2022-11-28T18:37:00.673Z,57.20
2022-11-28T18:39:27.715Z,57.09
2022-11-28T18:41:54.310Z,57.21
2022-11-28T18:44:20.876Z,57.34
2022-11-28T18:46:47.410Z,57.32
2022-11-28T18:49:15.568Z,57.24
2022-11-28T18:51:42.133Z,57.19
2022-11-28T18:54:09.377Z,57.04
2022-11-28T18:56:35.976Z,57.25
2022-11-28T18:59:02.772Z,57.33
2022-11-28T19:01:32.462Z,57.32
2022-11-28T19:04:05.592Z,57.70
2022-11-28T19:06:34.482Z,57.20
2022-11-28T19:09:03.192Z,57.35
2022-11-28T19:11:30.216Z,57.13
2022-11-28T19:13:57.907Z,57.23
2022-11-28T19:16:27.221Z,57.10
2022-11-28T19:18:54.809Z,57.12
2022-11-28T19:21:26.519Z,57.08
2022-11-28T19:23:55.073Z,57.18
2022-11-28T19:26:24.172Z,57.10
2022-11-28T19:28:51.344Z,57.09
2022-11-28T19:31:21.158Z,57.18
2022-11-28T19:34:00.851Z,57.30
2022-11-28T19:36:30.425Z,57.10
2022-11-28T19:38:58.190Z,57.13
2022-11-28T19:41:25.666Z,57.08
2022-11-28T19:43:52.234Z,56.92
2022-11-28T19:46:19.019Z,56.94
2022-11-28T19:48:46.349Z,56.98
2022-11-28T19:51:14.116Z,56.82
2022-11-28T19:53:42.653Z,56.87
2022-11-28T19:56:13.001Z,56.90
2022-11-28T19:58:39.998Z,56.87
2022-11-28T20:01:12.490Z,57.13
2022-11-28T20:03:41.124Z,56.81
2022-11-28T20:06:10.083Z,56.84
2022-11-28T20:08:37.013Z,56.91
2022-11-28T20:11:10.019Z,56.95
2022-11-28T20:13:37.136Z,56.99
2022-11-28T20:16:08.812Z,56.92
2022-11-28T20:18:39.893Z,56.87
2022-11-28T20:21:17.796Z,56.73
2022-11-28T20:23:47.560Z,56.67
2022-11-28T20:26:15.569Z,56.84
2022-11-28T20:28:43.085Z,56.86
2022-11-28T20:31:24.954Z,56.86
2022-11-28T20:33:53.381Z,56.66
2022-11-28T20:36:22.748Z,56.72
2022-11-28T20:38:50.082Z,56.79
2022-11-28T20:41:20.661Z,56.69
2022-11-28T20:43:47.630Z,56.73
2022-11-28T20:46:22.766Z,56.66
2022-11-28T20:48:49.693Z,56.60
2022-11-28T20:51:22.766Z,56.73
2022-11-28T20:53:49.357Z,56.78
2022-11-28T20:56:21.241Z,56.87
2022-11-28T20:58:48.509Z,56.61
2022-11-28T21:01:17.384Z,56.63
2022-11-28T21:03:45.001Z,56.73
2022-11-28T21:06:11.563Z,56.68
2022-11-28T21:08:38.925Z,56.49
2022-11-28T21:11:10.996Z,56.51
2022-11-28T21:13:37.977Z,56.72
2022-11-28T21:16:07.530Z,56.43
2022-11-28T21:18:37.308Z,56.37
2022-11-28T21:21:19.095Z,56.82
2022-11-28T21:23:46.231Z,56.46
2022-11-28T21:26:16.513Z,56.61
2022-11-28T21:28:45.573Z,56.47
2022-11-28T21:31:18.596Z,56.55
2022-11-28T21:33:49.172Z,56.62
2022-11-28T21:36:15.729Z,56.54
2022-11-28T21:38:42.844Z,56.58
2022-11-28T21:41:09.460Z,56.42
2022-11-28T21:43:36.564Z,56.52
2022-11-28T21:46:07.350Z,56.76
2022-11-28T21:48:35.920Z,56.59
2022-11-28T21:51:03.662Z,56.68
2022-11-28T21:53:30.933Z,56.68
2022-11-28T21:56:00.755Z,56.65
2022-11-28T21:58:28.429Z,56.53
2022-11-28T22:00:58.791Z,56.55
2022-11-28T22:03:26.179Z,56.46
2022-11-28T22:05:59.311Z,56.51
2022-11-28T22:08:26.343Z,56.71
2022-11-28T22:10:52.889Z,56.69
2022-11-28T22:13:19.934Z,56.44
2022-11-28T22:15:46.539Z,56.67
2022-11-28T22:18:13.107Z,56.56
2022-11-28T22:20:43.617Z,56.43
2022-11-28T22:23:11.636Z,56.58
2022-11-28T22:25:49.330Z,56.73
2022-11-28T22:28:15.906Z,56.59
2022-11-28T22:30:42.436Z,56.46
2022-11-28T22:33:08.954Z,56.70
2022-11-28T22:35:35.875Z,56.67
2022-11-28T22:38:02.453Z,56.51
2022-11-28T22:40:28.984Z,56.44
2022-11-28T22:42:56.122Z,56.52
2022-11-28T22:45:22.997Z,56.86
2022-11-28T22:47:50.059Z,56.68
2022-11-28T22:50:16.617Z,56.62
2022-11-28T22:52:44.175Z,56.72
2022-11-28T22:55:11.167Z,56.57
2022-11-28T22:57:37.690Z,56.49
2022-11-28T23:00:06.947Z,56.56
2022-11-28T23:02:33.636Z,56.57
2022-11-28T23:05:00.242Z,56.48
2022-11-28T23:07:27.385Z,56.50
2022-11-28T23:09:53.984Z,56.49
2022-11-28T23:12:20.550Z,56.46
2022-11-28T23:14:48.382Z,56.56
2022-11-28T23:17:14.924Z,56.42
2022-11-28T23:19:41.784Z,56.59
2022-11-28T23:22:08.944Z,56.66
2022-11-28T23:24:36.365Z,56.82
2022-11-28T23:27:02.933Z,56.50
2022-11-28T23:29:29.503Z,56.84
2022-11-28T23:31:56.072Z,56.68
2022-11-28T23:34:23.150Z,56.75
2022-11-28T23:36:50.143Z,56.60
2022-11-28T23:39:21.803Z,56.77
2022-11-28T23:41:49.233Z,56.45
2022-11-28T23:44:17.383Z,56.45
2022-11-28T23:46:45.042Z,56.72
2022-11-28T23:49:12.343Z,56.64
2022-11-28T23:51:40.485Z,56.82
2022-11-28T23:54:08.684Z,56.47
2022-11-28T23:56:37.531Z,56.69
2022-11-28T23:59:06.131Z,56.65
